sensor_id;sensor_type;location;lat;lon;timestamp;P1;durP1;ratioP1;P2;durP2;ratioP2
75246;SDS011;63844;50.042;19.224;2022-12-28T00:01:05;11.30;;;3.80;;
75246;SDS011;63844;50.042;19.224;2022-12-28T00:03:34;6.80;;;2.50;;
75246;SDS011;63844;50.042;19.224;2022-12-28T00:06:01;7.30;;;3.10;;
75246;SDS011;63844;50.042;19.224;2022-12-28T00:08:28;9.30;;;3.70;;
75246;SDS011;63844;50.042;19.224;2022-12-28T00:11:02;10.50;;;3.70;;
75246;SDS011;63844;50.042;19.224;2022-12-28T00:13:31;8.80;;;3.10;;
75246;SDS011;63844;50.042;19.224;2022-12-28T00:16:04;7.30;;;2.60;;
75246;SDS011;63844;50.042;19.224;2022-12-28T00:18:33;6.50;;;3.00;;
75246;SDS011;63844;50.042;19.224;2022-12-28T00:21:00;7.70;;;2.80;;
75246;SDS011;63844;50.042;19.224;2022-12-28T00:23:28;8.80;;;3.70;;
75246;SDS011;63844;50.042;19.224;2022-12-28T00:25:54;7.30;;;3.00;;
75246;SDS011;63844;50.042;19.224;2022-12-28T00:28:21;7.50;;;2.60;;
75246;SDS011;63844;50.042;19.224;2022-12-28T00:30:47;6.10;;;2.90;;
75246;SDS011;63844;50.042;19.224;2022-12-28T00:33:14;7.90;;;2.90;;
75246;SDS011;63844;50.042;19.224;2022-12-28T00:35:40;6.90;;;2.60;;
75246;SDS011;63844;50.042;19.224;2022-12-28T00:38:07;10.90;;;2.80;;
75246;SDS011;63844;50.042;19.224;2022-12-28T00:40:33;5.20;;;2.10;;
75246;SDS011;63844;50.042;19.224;2022-12-28T00:42:59;7.20;;;2.80;;
75246;SDS011;63844;50.042;19.224;2022-12-28T00:45:26;8.30;;;2.50;;
75246;SDS011;63844;50.042;19.224;2022-12-28T00:47:52;7.40;;;3.30;;
75246;SDS011;63844;50.042;19.224;2022-12-28T00:50:18;4.90;;;2.20;;
75246;SDS011;63844;50.042;19.224;2022-12-28T00:52:45;6.90;;;3.10;;
75246;SDS011;63844;50.042;19.224;2022-12-28T00:55:11;5.90;;;2.60;;
75246;SDS011;63844;50.042;19.224;2022-12-28T00:57:37;6.20;;;2.30;;
75246;SDS011;63844;50.042;19.224;2022-12-28T01:00:06;6.40;;;2.20;;
75246;SDS011;63844;50.042;19.224;2022-12-28T01:02:33;5.60;;;1.60;;
75246;SDS011;63844;50.042;19.224;2022-12-28T01:04:59;5.90;;;2.20;;
75246;SDS011;63844;50.042;19.224;2022-12-28T01:07:26;10.30;;;2.50;;
75246;SDS011;63844;50.042;19.224;2022-12-28T01:09:52;6.10;;;2.10;;
75246;SDS011;63844;50.042;19.224;2022-12-28T01:12:18;4.60;;;1.70;;
75246;SDS011;63844;50.042;19.224;2022-12-28T01:14:45;3.80;;;1.60;;
75246;SDS011;63844;50.042;19.224;2022-12-28T01:17:11;8.80;;;3.00;;
75246;SDS011;63844;50.042;19.224;2022-12-28T01:19:37;5.10;;;3.00;;
75246;SDS011;63844;50.042;19.224;2022-12-28T01:22:04;9.10;;;3.10;;
75246;SDS011;63844;50.042;19.224;2022-12-28T01:24:30;7.70;;;3.40;;
75246;SDS011;63844;50.042;19.224;2022-12-28T01:26:57;6.90;;;4.00;;
75246;SDS011;63844;50.042;19.224;2022-12-28T01:29:23;8.60;;;2.90;;
75246;SDS011;63844;50.042;19.224;2022-12-28T01:31:49;7.50;;;4.20;;
75246;SDS011;63844;50.042;19.224;2022-12-28T01:34:16;7.60;;;3.90;;
75246;SDS011;63844;50.042;19.224;2022-12-28T01:36:42;5.20;;;2.30;;
75246;SDS011;63844;50.042;19.224;2022-12-28T01:39:09;7.40;;;3.40;;
75246;SDS011;63844;50.042;19.224;2022-12-28T01:41:36;6.90;;;2.90;;
75246;SDS011;63844;50.042;19.224;2022-12-28T01:49:34;9.20;;;2.50;;
75246;SDS011;63844;50.042;19.224;2022-12-28T01:54:36;8.00;;;3.00;;
75246;SDS011;63844;50.042;19.224;2022-12-28T01:57:15;6.30;;;2.50;;
75246;SDS011;63844;50.042;19.224;2022-12-28T01:59:45;7.60;;;3.10;;
75246;SDS011;63844;50.042;19.224;2022-12-28T02:02:18;9.00;;;3.10;;
75246;SDS011;63844;50.042;19.224;2022-12-28T02:04:46;5.40;;;2.80;;
75246;SDS011;63844;50.042;19.224;2022-12-28T02:07:15;4.70;;;3.10;;
75246;SDS011;63844;50.042;19.224;2022-12-28T02:09:51;6.30;;;2.70;;
75246;SDS011;63844;50.042;19.224;2022-12-28T02:12:18;5.30;;;2.50;;
75246;SDS011;63844;50.042;19.224;2022-12-28T02:14:45;4.60;;;1.90;;
75246;SDS011;63844;50.042;19.224;2022-12-28T02:17:12;6.70;;;2.20;;
75246;SDS011;63844;50.042;19.224;2022-12-28T02:25:08;5.60;;;2.90;;
75246;SDS011;63844;50.042;19.224;2022-12-28T02:28:08;4.40;;;2.30;;
75246;SDS011;63844;50.042;19.224;2022-12-28T02:30:53;8.90;;;2.80;;
75246;SDS011;63844;50.042;19.224;2022-12-28T02:33:37;7.50;;;2.50;;
75246;SDS011;63844;50.042;19.224;2022-12-28T02:36:27;4.30;;;2.00;;
75246;SDS011;63844;50.042;19.224;2022-12-28T02:39:01;5.50;;;1.70;;
75246;SDS011;63844;50.042;19.224;2022-12-28T02:41:31;4.50;;;2.00;;
75246;SDS011;63844;50.042;19.224;2022-12-28T02:43:59;4.40;;;2.00;;
75246;SDS011;63844;50.042;19.224;2022-12-28T02:46:30;4.90;;;1.70;;
75246;SDS011;63844;50.042;19.224;2022-12-28T02:49:21;8.40;;;2.40;;
75246;SDS011;63844;50.042;19.224;2022-12-28T02:52:22;7.70;;;2.80;;
75246;SDS011;63844;50.042;19.224;2022-12-28T03:00:47;8.80;;;2.60;;
75246;SDS011;63844;50.042;19.224;2022-12-28T03:03:20;7.00;;;2.30;;
75246;SDS011;63844;50.042;19.224;2022-12-28T03:06:19;5.20;;;2.20;;
75246;SDS011;63844;50.042;19.224;2022-12-28T03:09:16;7.90;;;3.20;;
75246;SDS011;63844;50.042;19.224;2022-12-28T03:11:58;10.00;;;3.40;;
75246;SDS011;63844;50.042;19.224;2022-12-28T03:14:33;8.70;;;3.60;;
75246;SDS011;63844;50.042;19.224;2022-12-28T03:17:04;11.10;;;3.70;;
75246;SDS011;63844;50.042;19.224;2022-12-28T03:19:55;7.40;;;3.50;;
75246;SDS011;63844;50.042;19.224;2022-12-28T03:22:43;7.70;;;3.50;;
75246;SDS011;63844;50.042;19.224;2022-12-28T03:28:18;10.10;;;3.70;;
75246;SDS011;63844;50.042;19.224;2022-12-28T03:31:14;9.20;;;3.50;;
75246;SDS011;63844;50.042;19.224;2022-12-28T03:33:44;9.40;;;3.80;;
75246;SDS011;63844;50.042;19.224;2022-12-28T03:38:59;8.50;;;4.20;;
75246;SDS011;63844;50.042;19.224;2022-12-28T03:41:30;10.20;;;3.80;;
75246;SDS011;63844;50.042;19.224;2022-12-28T03:44:11;9.40;;;4.00;;
75246;SDS011;63844;50.042;19.224;2022-12-28T03:46:44;8.50;;;3.80;;
75246;SDS011;63844;50.042;19.224;2022-12-28T03:49:17;11.30;;;4.10;;
75246;SDS011;63844;50.042;19.224;2022-12-28T03:51:45;11.20;;;4.30;;
75246;SDS011;63844;50.042;19.224;2022-12-28T03:54:14;11.30;;;4.40;;
75246;SDS011;63844;50.042;19.224;2022-12-28T03:56:48;11.60;;;5.00;;
75246;SDS011;63844;50.042;19.224;2022-12-28T03:59:16;7.90;;;4.00;;
75246;SDS011;63844;50.042;19.224;2022-12-28T04:01:43;12.50;;;5.30;;
75246;SDS011;63844;50.042;19.224;2022-12-28T04:04:10;9.40;;;4.10;;
75246;SDS011;63844;50.042;19.224;2022-12-28T04:06:37;7.70;;;4.40;;
75246;SDS011;63844;50.042;19.224;2022-12-28T04:09:04;14.40;;;4.70;;
75246;SDS011;63844;50.042;19.224;2022-12-28T04:11:31;9.30;;;4.20;;
75246;SDS011;63844;50.042;19.224;2022-12-28T04:13:58;8.20;;;4.10;;
75246;SDS011;63844;50.042;19.224;2022-12-28T04:16:24;8.10;;;4.10;;
75246;SDS011;63844;50.042;19.224;2022-12-28T04:18:51;12.40;;;5.60;;
75246;SDS011;63844;50.042;19.224;2022-12-28T04:21:17;13.80;;;6.00;;
75246;SDS011;63844;50.042;19.224;2022-12-28T04:23:43;17.70;;;7.20;;
75246;SDS011;63844;50.042;19.224;2022-12-28T04:26:11;13.10;;;5.60;;
75246;SDS011;63844;50.042;19.224;2022-12-28T04:28:39;18.60;;;7.60;;
75246;SDS011;63844;50.042;19.224;2022-12-28T04:31:06;16.80;;;6.80;;
75246;SDS011;63844;50.042;19.224;2022-12-28T04:33:34;18.20;;;7.30;;
75246;SDS011;63844;50.042;19.224;2022-12-28T04:36:03;17.80;;;7.20;;
75246;SDS011;63844;50.042;19.224;2022-12-28T04:38:35;15.10;;;6.70;;
75246;SDS011;63844;50.042;19.224;2022-12-28T04:41:01;16.10;;;7.70;;
75246;SDS011;63844;50.042;19.224;2022-12-28T04:43:29;17.70;;;7.90;;
75246;SDS011;63844;50.042;19.224;2022-12-28T04:48:26;15.70;;;6.60;;
75246;SDS011;63844;50.042;19.224;2022-12-28T04:50:53;15.60;;;6.80;;
75246;SDS011;63844;50.042;19.224;2022-12-28T04:53:21;16.30;;;6.10;;
75246;SDS011;63844;50.042;19.224;2022-12-28T04:58:15;11.70;;;5.60;;
75246;SDS011;63844;50.042;19.224;2022-12-28T05:00:41;13.90;;;5.40;;
75246;SDS011;63844;50.042;19.224;2022-12-28T05:03:08;13.10;;;5.00;;
75246;SDS011;63844;50.042;19.224;2022-12-28T05:05:35;13.20;;;4.70;;
75246;SDS011;63844;50.042;19.224;2022-12-28T05:08:02;11.60;;;5.00;;
75246;SDS011;63844;50.042;19.224;2022-12-28T05:10:29;14.70;;;5.90;;
75246;SDS011;63844;50.042;19.224;2022-12-28T05:12:55;11.40;;;5.50;;
75246;SDS011;63844;50.042;19.224;2022-12-28T05:15:22;9.00;;;4.50;;
75246;SDS011;63844;50.042;19.224;2022-12-28T05:17:48;9.70;;;4.90;;
75246;SDS011;63844;50.042;19.224;2022-12-28T05:20:14;10.90;;;5.20;;
75246;SDS011;63844;50.042;19.224;2022-12-28T05:22:43;10.90;;;4.90;;
75246;SDS011;63844;50.042;19.224;2022-12-28T05:25:09;11.80;;;5.20;;
75246;SDS011;63844;50.042;19.224;2022-12-28T05:27:35;10.90;;;5.10;;
75246;SDS011;63844;50.042;19.224;2022-12-28T05:30:02;9.10;;;4.80;;
75246;SDS011;63844;50.042;19.224;2022-12-28T05:32:29;12.60;;;5.30;;
75246;SDS011;63844;50.042;19.224;2022-12-28T05:34:55;9.70;;;4.70;;
75246;SDS011;63844;50.042;19.224;2022-12-28T05:37:21;9.50;;;4.10;;
75246;SDS011;63844;50.042;19.224;2022-12-28T05:39:48;10.50;;;4.30;;
75246;SDS011;63844;50.042;19.224;2022-12-28T05:42:14;11.30;;;3.70;;
75246;SDS011;63844;50.042;19.224;2022-12-28T05:44:41;10.50;;;4.00;;
75246;SDS011;63844;50.042;19.224;2022-12-28T05:47:07;11.50;;;4.60;;
75246;SDS011;63844;50.042;19.224;2022-12-28T05:49:33;9.40;;;4.40;;
75246;SDS011;63844;50.042;19.224;2022-12-28T05:52:00;11.00;;;4.40;;
75246;SDS011;63844;50.042;19.224;2022-12-28T05:54:26;13.20;;;6.80;;
75246;SDS011;63844;50.042;19.224;2022-12-28T05:56:53;13.80;;;5.80;;
75246;SDS011;63844;50.042;19.224;2022-12-28T05:59:19;16.80;;;8.20;;
75246;SDS011;63844;50.042;19.224;2022-12-28T06:01:45;21.60;;;11.30;;
75246;SDS011;63844;50.042;19.224;2022-12-28T06:04:14;21.20;;;10.20;;
75246;SDS011;63844;50.042;19.224;2022-12-28T06:06:43;46.40;;;18.50;;
75246;SDS011;63844;50.042;19.224;2022-12-28T06:09:10;95.60;;;30.40;;
75246;SDS011;63844;50.042;19.224;2022-12-28T06:11:38;82.90;;;28.80;;
75246;SDS011;63844;50.042;19.224;2022-12-28T06:14:05;122.00;;;37.90;;
75246;SDS011;63844;50.042;19.224;2022-12-28T06:16:32;220.40;;;60.80;;
75246;SDS011;63844;50.042;19.224;2022-12-28T06:19:07;169.20;;;45.90;;
75246;SDS011;63844;50.042;19.224;2022-12-28T06:21:36;91.90;;;25.20;;
75246;SDS011;63844;50.042;19.224;2022-12-28T06:24:04;115.50;;;30.40;;
75246;SDS011;63844;50.042;19.224;2022-12-28T06:26:33;98.00;;;26.40;;
75246;SDS011;63844;50.042;19.224;2022-12-28T06:29:01;117.60;;;31.90;;
75246;SDS011;63844;50.042;19.224;2022-12-28T06:31:29;117.70;;;30.30;;
75246;SDS011;63844;50.042;19.224;2022-12-28T06:33:58;73.90;;;19.90;;
75246;SDS011;63844;50.042;19.224;2022-12-28T06:36:27;96.50;;;27.00;;
75246;SDS011;63844;50.042;19.224;2022-12-28T06:38:58;85.50;;;23.60;;
75246;SDS011;63844;50.042;19.224;2022-12-28T06:41:27;108.90;;;28.10;;
75246;SDS011;63844;50.042;19.224;2022-12-28T06:43:54;98.60;;;26.30;;
75246;SDS011;63844;50.042;19.224;2022-12-28T06:46:22;78.30;;;21.10;;
75246;SDS011;63844;50.042;19.224;2022-12-28T06:48:50;56.80;;;17.30;;
75246;SDS011;63844;50.042;19.224;2022-12-28T06:51:18;56.80;;;16.90;;
75246;SDS011;63844;50.042;19.224;2022-12-28T06:53:50;70.30;;;19.40;;
75246;SDS011;63844;50.042;19.224;2022-12-28T06:56:19;68.40;;;18.60;;
75246;SDS011;63844;50.042;19.224;2022-12-28T06:58:47;63.20;;;18.10;;
75246;SDS011;63844;50.042;19.224;2022-12-28T07:01:19;55.90;;;15.10;;
75246;SDS011;63844;50.042;19.224;2022-12-28T07:03:48;52.50;;;16.20;;
75246;SDS011;63844;50.042;19.224;2022-12-28T07:06:16;49.80;;;14.40;;
75246;SDS011;63844;50.042;19.224;2022-12-28T07:08:44;47.30;;;14.10;;
75246;SDS011;63844;50.042;19.224;2022-12-28T07:11:15;27.50;;;10.00;;
75246;SDS011;63844;50.042;19.224;2022-12-28T07:13:44;47.80;;;14.60;;
75246;SDS011;63844;50.042;19.224;2022-12-28T07:16:12;49.50;;;14.50;;
75246;SDS011;63844;50.042;19.224;2022-12-28T07:18:42;23.00;;;9.30;;
75246;SDS011;63844;50.042;19.224;2022-12-28T07:21:10;24.70;;;9.50;;
75246;SDS011;63844;50.042;19.224;2022-12-28T07:23:39;27.90;;;10.10;;
75246;SDS011;63844;50.042;19.224;2022-12-28T07:26:06;26.70;;;10.00;;
75246;SDS011;63844;50.042;19.224;2022-12-28T07:28:37;15.70;;;6.90;;
75246;SDS011;63844;50.042;19.224;2022-12-28T07:31:09;21.50;;;8.30;;
75246;SDS011;63844;50.042;19.224;2022-12-28T07:33:37;15.90;;;7.40;;
75246;SDS011;63844;50.042;19.224;2022-12-28T07:36:04;22.10;;;9.90;;
75246;SDS011;63844;50.042;19.224;2022-12-28T07:38:33;22.80;;;9.40;;
75246;SDS011;63844;50.042;19.224;2022-12-28T07:41:04;21.70;;;10.20;;
75246;SDS011;63844;50.042;19.224;2022-12-28T07:43:38;22.80;;;9.20;;
75246;SDS011;63844;50.042;19.224;2022-12-28T07:48:33;26.40;;;10.40;;
75246;SDS011;63844;50.042;19.224;2022-12-28T07:51:05;30.50;;;12.20;;
75246;SDS011;63844;50.042;19.224;2022-12-28T07:53:37;40.20;;;17.70;;
75246;SDS011;63844;50.042;19.224;2022-12-28T07:56:05;33.50;;;16.20;;
75246;SDS011;63844;50.042;19.224;2022-12-28T07:58:32;29.20;;;14.80;;
75246;SDS011;63844;50.042;19.224;2022-12-28T08:01:03;33.60;;;15.30;;
75246;SDS011;63844;50.042;19.224;2022-12-28T08:03:30;27.80;;;14.60;;
75246;SDS011;63844;50.042;19.224;2022-12-28T08:06:01;28.70;;;13.20;;
75246;SDS011;63844;50.042;19.224;2022-12-28T08:08:32;34.10;;;16.90;;
75246;SDS011;63844;50.042;19.224;2022-12-28T08:11:01;35.20;;;17.10;;
75246;SDS011;63844;50.042;19.224;2022-12-28T08:13:34;31.10;;;14.40;;
75246;SDS011;63844;50.042;19.224;2022-12-28T08:16:04;27.60;;;13.40;;
75246;SDS011;63844;50.042;19.224;2022-12-28T08:18:31;22.40;;;12.20;;
75246;SDS011;63844;50.042;19.224;2022-12-28T08:21:01;29.10;;;14.60;;
75246;SDS011;63844;50.042;19.224;2022-12-28T08:23:30;33.20;;;15.90;;
75246;SDS011;63844;50.042;19.224;2022-12-28T08:28:59;31.40;;;15.80;;
75246;SDS011;63844;50.042;19.224;2022-12-28T08:31:28;38.90;;;17.60;;
75246;SDS011;63844;50.042;19.224;2022-12-28T08:33:57;49.90;;;23.40;;
75246;SDS011;63844;50.042;19.224;2022-12-28T08:36:26;40.00;;;19.20;;
75246;SDS011;63844;50.042;19.224;2022-12-28T08:38:53;51.30;;;21.10;;
75246;SDS011;63844;50.042;19.224;2022-12-28T08:41:20;63.60;;;26.70;;
75246;SDS011;63844;50.042;19.224;2022-12-28T08:43:48;67.10;;;28.70;;
75246;SDS011;63844;50.042;19.224;2022-12-28T08:46:17;62.00;;;27.70;;
75246;SDS011;63844;50.042;19.224;2022-12-28T08:48:46;63.50;;;28.70;;
75246;SDS011;63844;50.042;19.224;2022-12-28T08:53:44;62.20;;;26.70;;
75246;SDS011;63844;50.042;19.224;2022-12-28T08:56:13;67.50;;;28.60;;
75246;SDS011;63844;50.042;19.224;2022-12-28T08:58:41;71.50;;;29.50;;
75246;SDS011;63844;50.042;19.224;2022-12-28T09:03:41;77.00;;;30.80;;
75246;SDS011;63844;50.042;19.224;2022-12-28T09:06:10;74.70;;;30.50;;
75246;SDS011;63844;50.042;19.224;2022-12-28T09:08:38;58.70;;;26.90;;
75246;SDS011;63844;50.042;19.224;2022-12-28T09:11:06;60.80;;;27.00;;
75246;SDS011;63844;50.042;19.224;2022-12-28T09:13:35;67.50;;;30.80;;
75246;SDS011;63844;50.042;19.224;2022-12-28T09:16:03;65.10;;;28.30;;
75246;SDS011;63844;50.042;19.224;2022-12-28T09:18:32;60.70;;;25.00;;
75246;SDS011;63844;50.042;19.224;2022-12-28T09:23:36;50.40;;;19.50;;
75246;SDS011;63844;50.042;19.224;2022-12-28T09:26:06;54.10;;;22.20;;
75246;SDS011;63844;50.042;19.224;2022-12-28T09:28:35;45.20;;;21.10;;
75246;SDS011;63844;50.042;19.224;2022-12-28T09:33:32;48.90;;;20.20;;
75246;SDS011;63844;50.042;19.224;2022-12-28T09:36:18;61.30;;;26.10;;
75246;SDS011;63844;50.042;19.224;2022-12-28T09:38:46;63.50;;;27.30;;
75246;SDS011;63844;50.042;19.224;2022-12-28T09:41:30;65.40;;;28.00;;
75246;SDS011;63844;50.042;19.224;2022-12-28T09:49:18;65.00;;;28.20;;
75246;SDS011;63844;50.042;19.224;2022-12-28T09:54:45;55.40;;;24.30;;
75246;SDS011;63844;50.042;19.224;2022-12-28T09:57:15;56.70;;;26.70;;
75246;SDS011;63844;50.042;19.224;2022-12-28T09:59:44;46.00;;;21.90;;
75246;SDS011;63844;50.042;19.224;2022-12-28T10:02:25;54.00;;;24.40;;
75246;SDS011;63844;50.042;19.224;2022-12-28T10:04:56;47.60;;;23.00;;
75246;SDS011;63844;50.042;19.224;2022-12-28T10:09:50;41.40;;;18.60;;
75246;SDS011;63844;50.042;19.224;2022-12-28T10:12:19;43.70;;;20.20;;
75246;SDS011;63844;50.042;19.224;2022-12-28T10:14:47;29.60;;;14.60;;
75246;SDS011;63844;50.042;19.224;2022-12-28T10:17:15;24.20;;;11.70;;
75246;SDS011;63844;50.042;19.224;2022-12-28T10:19:45;21.30;;;10.40;;
75246;SDS011;63844;50.042;19.224;2022-12-28T10:22:13;23.90;;;10.50;;
75246;SDS011;63844;50.042;19.224;2022-12-28T10:24:44;24.00;;;9.30;;
75246;SDS011;63844;50.042;19.224;2022-12-28T10:27:19;20.40;;;9.80;;
75246;SDS011;63844;50.042;19.224;2022-12-28T10:29:51;31.00;;;14.30;;
75246;SDS011;63844;50.042;19.224;2022-12-28T10:32:19;22.70;;;11.70;;
75246;SDS011;63844;50.042;19.224;2022-12-28T10:37:24;20.10;;;7.60;;
75246;SDS011;63844;50.042;19.224;2022-12-28T10:39:58;15.80;;;7.90;;
75246;SDS011;63844;50.042;19.224;2022-12-28T10:42:48;11.50;;;5.30;;
75246;SDS011;63844;50.042;19.224;2022-12-28T10:45:18;15.00;;;6.30;;
75246;SDS011;63844;50.042;19.224;2022-12-28T10:47:48;15.60;;;5.70;;
75246;SDS011;63844;50.042;19.224;2022-12-28T10:56:00;8.60;;;3.10;;
75246;SDS011;63844;50.042;19.224;2022-12-28T10:58:29;7.70;;;2.70;;
75246;SDS011;63844;50.042;19.224;2022-12-28T11:00:57;5.00;;;1.70;;
75246;SDS011;63844;50.042;19.224;2022-12-28T11:03:33;5.50;;;1.90;;
75246;SDS011;63844;50.042;19.224;2022-12-28T11:06:08;8.60;;;2.90;;
75246;SDS011;63844;50.042;19.224;2022-12-28T11:08:38;5.20;;;2.10;;
75246;SDS011;63844;50.042;19.224;2022-12-28T11:11:05;8.70;;;2.10;;
75246;SDS011;63844;50.042;19.224;2022-12-28T11:13:33;6.60;;;2.20;;
75246;SDS011;63844;50.042;19.224;2022-12-28T11:15:59;3.60;;;1.30;;
75246;SDS011;63844;50.042;19.224;2022-12-28T11:18:26;5.40;;;1.60;;
75246;SDS011;63844;50.042;19.224;2022-12-28T11:23:24;4.40;;;1.20;;
75246;SDS011;63844;50.042;19.224;2022-12-28T11:25:56;6.80;;;1.40;;
75246;SDS011;63844;50.042;19.224;2022-12-28T11:28:24;3.70;;;1.70;;
75246;SDS011;63844;50.042;19.224;2022-12-28T11:30:50;7.40;;;1.70;;
75246;SDS011;63844;50.042;19.224;2022-12-28T11:33:37;9.10;;;2.60;;
75246;SDS011;63844;50.042;19.224;2022-12-28T11:36:20;4.80;;;1.10;;
75246;SDS011;63844;50.042;19.224;2022-12-28T11:38:49;6.00;;;2.30;;
75246;SDS011;63844;50.042;19.224;2022-12-28T11:43:52;5.90;;;2.30;;
75246;SDS011;63844;50.042;19.224;2022-12-28T11:48:59;9.60;;;4.80;;
75246;SDS011;63844;50.042;19.224;2022-12-28T12:04:30;4.50;;;1.50;;
75246;SDS011;63844;50.042;19.224;2022-12-28T12:11:59;2.80;;;1.30;;
75246;SDS011;63844;50.042;19.224;2022-12-28T12:14:30;3.90;;;1.50;;
75246;SDS011;63844;50.042;19.224;2022-12-28T12:17:04;3.30;;;0.80;;
75246;SDS011;63844;50.042;19.224;2022-12-28T12:19:39;2.30;;;1.10;;
75246;SDS011;63844;50.042;19.224;2022-12-28T12:24:42;12.70;;;3.80;;
75246;SDS011;63844;50.042;19.224;2022-12-28T12:27:18;4.60;;;2.00;;
75246;SDS011;63844;50.042;19.224;2022-12-28T12:29:56;1.90;;;1.10;;
75246;SDS011;63844;50.042;19.224;2022-12-28T12:32:43;2.90;;;1.70;;
75246;SDS011;63844;50.042;19.224;2022-12-28T12:35:25;3.00;;;0.90;;
75246;SDS011;63844;50.042;19.224;2022-12-28T12:38:11;3.80;;;1.80;;
75246;SDS011;63844;50.042;19.224;2022-12-28T12:40:58;4.40;;;2.00;;
75246;SDS011;63844;50.042;19.224;2022-12-28T12:46:42;2.50;;;1.40;;
75246;SDS011;63844;50.042;19.224;2022-12-28T12:49:30;4.50;;;1.10;;
75246;SDS011;63844;50.042;19.224;2022-12-28T12:52:19;4.30;;;1.60;;
75246;SDS011;63844;50.042;19.224;2022-12-28T13:00:27;4.20;;;1.70;;
75246;SDS011;63844;50.042;19.224;2022-12-28T13:05:59;11.60;;;5.70;;
75246;SDS011;63844;50.042;19.224;2022-12-28T13:08:46;8.80;;;3.30;;
75246;SDS011;63844;50.042;19.224;2022-12-28T13:11:16;4.50;;;1.80;;
75246;SDS011;63844;50.042;19.224;2022-12-28T13:13:45;6.30;;;2.70;;
75246;SDS011;63844;50.042;19.224;2022-12-28T13:16:14;7.10;;;2.60;;
75246;SDS011;63844;50.042;19.224;2022-12-28T13:18:57;7.20;;;2.60;;
75246;SDS011;63844;50.042;19.224;2022-12-28T13:21:29;6.50;;;2.10;;
75246;SDS011;63844;50.042;19.224;2022-12-28T13:24:19;4.10;;;2.10;;
75246;SDS011;63844;50.042;19.224;2022-12-28T13:26:46;6.50;;;3.40;;
75246;SDS011;63844;50.042;19.224;2022-12-28T13:29:14;6.00;;;1.90;;
75246;SDS011;63844;50.042;19.224;2022-12-28T13:31:44;6.40;;;2.70;;
75246;SDS011;63844;50.042;19.224;2022-12-28T13:34:16;5.40;;;2.20;;
75246;SDS011;63844;50.042;19.224;2022-12-28T13:36:48;4.60;;;1.80;;
75246;SDS011;63844;50.042;19.224;2022-12-28T13:39:21;4.70;;;2.80;;
75246;SDS011;63844;50.042;19.224;2022-12-28T13:41:54;4.90;;;2.00;;
75246;SDS011;63844;50.042;19.224;2022-12-28T13:47:03;4.20;;;1.90;;
75246;SDS011;63844;50.042;19.224;2022-12-28T13:49:35;5.20;;;1.20;;
75246;SDS011;63844;50.042;19.224;2022-12-28T13:52:08;6.00;;;2.70;;
75246;SDS011;63844;50.042;19.224;2022-12-28T13:54:39;5.20;;;2.30;;
75246;SDS011;63844;50.042;19.224;2022-12-28T13:57:11;5.10;;;2.50;;
75246;SDS011;63844;50.042;19.224;2022-12-28T13:59:41;6.20;;;2.00;;
75246;SDS011;63844;50.042;19.224;2022-12-28T14:02:17;5.30;;;2.10;;
75246;SDS011;63844;50.042;19.224;2022-12-28T14:04:46;3.80;;;2.50;;
75246;SDS011;63844;50.042;19.224;2022-12-28T14:07:15;3.30;;;1.70;;
75246;SDS011;63844;50.042;19.224;2022-12-28T14:09:43;4.80;;;2.20;;
75246;SDS011;63844;50.042;19.224;2022-12-28T14:12:11;5.50;;;2.20;;
75246;SDS011;63844;50.042;19.224;2022-12-28T14:14:39;4.00;;;2.00;;
75246;SDS011;63844;50.042;19.224;2022-12-28T14:17:07;7.60;;;2.20;;
75246;SDS011;63844;50.042;19.224;2022-12-28T14:19:34;5.10;;;2.30;;
75246;SDS011;63844;50.042;19.224;2022-12-28T14:24:27;5.20;;;2.10;;
75246;SDS011;63844;50.042;19.224;2022-12-28T14:26:55;4.50;;;1.90;;
75246;SDS011;63844;50.042;19.224;2022-12-28T14:29:27;6.10;;;1.80;;
75246;SDS011;63844;50.042;19.224;2022-12-28T14:31:56;10.10;;;2.50;;
75246;SDS011;63844;50.042;19.224;2022-12-28T14:34:29;5.60;;;2.70;;
75246;SDS011;63844;50.042;19.224;2022-12-28T14:36:58;6.30;;;2.50;;
75246;SDS011;63844;50.042;19.224;2022-12-28T14:39:30;7.60;;;3.50;;
75246;SDS011;63844;50.042;19.224;2022-12-28T14:42:03;6.30;;;2.90;;
75246;SDS011;63844;50.042;19.224;2022-12-28T14:44:43;9.40;;;3.70;;
75246;SDS011;63844;50.042;19.224;2022-12-28T14:49:58;7.20;;;2.40;;
75246;SDS011;63844;50.042;19.224;2022-12-28T14:52:40;8.80;;;2.70;;
75246;SDS011;63844;50.042;19.224;2022-12-28T14:55:28;8.10;;;2.90;;
75246;SDS011;63844;50.042;19.224;2022-12-28T14:58:00;7.40;;;3.00;;
75246;SDS011;63844;50.042;19.224;2022-12-28T15:00:33;8.80;;;2.50;;
75246;SDS011;63844;50.042;19.224;2022-12-28T15:06:12;10.10;;;3.20;;
75246;SDS011;63844;50.042;19.224;2022-12-28T15:08:39;9.20;;;3.30;;
75246;SDS011;63844;50.042;19.224;2022-12-28T15:11:05;6.90;;;2.70;;
75246;SDS011;63844;50.042;19.224;2022-12-28T15:13:34;6.90;;;2.90;;
75246;SDS011;63844;50.042;19.224;2022-12-28T15:16:01;7.40;;;3.00;;
75246;SDS011;63844;50.042;19.224;2022-12-28T15:18:31;9.20;;;2.80;;
75246;SDS011;63844;50.042;19.224;2022-12-28T15:21:02;8.60;;;3.40;;
75246;SDS011;63844;50.042;19.224;2022-12-28T15:23:30;6.80;;;2.30;;
75246;SDS011;63844;50.042;19.224;2022-12-28T15:25:56;6.50;;;2.60;;
75246;SDS011;63844;50.042;19.224;2022-12-28T15:28:23;8.00;;;3.20;;
75246;SDS011;63844;50.042;19.224;2022-12-28T15:33:16;9.50;;;3.70;;
75246;SDS011;63844;50.042;19.224;2022-12-28T15:35:42;10.40;;;3.40;;
75246;SDS011;63844;50.042;19.224;2022-12-28T15:38:09;12.90;;;4.30;;
75246;SDS011;63844;50.042;19.224;2022-12-28T15:40:37;12.90;;;4.20;;
75246;SDS011;63844;50.042;19.224;2022-12-28T15:43:05;15.10;;;6.00;;
75246;SDS011;63844;50.042;19.224;2022-12-28T15:45:31;13.10;;;5.40;;
75246;SDS011;63844;50.042;19.224;2022-12-28T15:47:58;12.40;;;6.10;;
75246;SDS011;63844;50.042;19.224;2022-12-28T15:50:24;17.40;;;6.80;;
75246;SDS011;63844;50.042;19.224;2022-12-28T15:52:50;16.90;;;6.90;;
75246;SDS011;63844;50.042;19.224;2022-12-28T15:55:17;13.70;;;5.60;;
75246;SDS011;63844;50.042;19.224;2022-12-28T15:57:43;18.10;;;7.90;;
75246;SDS011;63844;50.042;19.224;2022-12-28T16:00:11;17.40;;;7.90;;
75246;SDS011;63844;50.042;19.224;2022-12-28T16:02:43;13.00;;;5.30;;
75246;SDS011;63844;50.042;19.224;2022-12-28T16:05:10;10.60;;;4.20;;
75246;SDS011;63844;50.042;19.224;2022-12-28T16:07:37;7.70;;;3.70;;
75246;SDS011;63844;50.042;19.224;2022-12-28T16:10:03;12.20;;;4.80;;
75246;SDS011;63844;50.042;19.224;2022-12-28T16:12:30;9.40;;;4.00;;
75246;SDS011;63844;50.042;19.224;2022-12-28T16:14:56;13.30;;;5.20;;
75246;SDS011;63844;50.042;19.224;2022-12-28T16:17:23;22.30;;;10.20;;
75246;SDS011;63844;50.042;19.224;2022-12-28T16:19:49;19.20;;;8.50;;
75246;SDS011;63844;50.042;19.224;2022-12-28T16:22:15;22.20;;;9.00;;
75246;SDS011;63844;50.042;19.224;2022-12-28T16:24:42;27.10;;;11.30;;
75246;SDS011;63844;50.042;19.224;2022-12-28T16:27:08;31.60;;;13.10;;
75246;SDS011;63844;50.042;19.224;2022-12-28T16:29:35;23.50;;;9.10;;
75246;SDS011;63844;50.042;19.224;2022-12-28T16:32:01;29.70;;;9.80;;
75246;SDS011;63844;50.042;19.224;2022-12-28T16:34:28;32.40;;;13.10;;
75246;SDS011;63844;50.042;19.224;2022-12-28T16:36:56;39.00;;;15.60;;
75246;SDS011;63844;50.042;19.224;2022-12-28T16:39:25;30.30;;;12.00;;